Time;durP1;ratioP1;P1;durP2;ratioP2;P2;SDS_P1;SDS_P2;PMS_P1;PMS_P2;Temp;Humidity;BMP_temperature;BMP_pressure;BME280_temperature;BME280_humidity;BME280_pressure;Samples;Min_cycle;Max_cycle;Signal;HPM_P1;HPM_P2
2022/08/25 00:01:13;;;;;;;0.30;0.30;;;23.70;99.90;;;;;;5101367;28;20176;-82
2022/08/25 00:03:40;;;;;;;0.60;0.60;;;23.70;99.90;;;;;;5088143;28;20533;-82
2022/08/25 00:06:06;;;;;;;0.40;0.40;;;23.70;99.90;;;;;;5092960;28;20181;-82
2022/08/25 00:08:33;;;;;;;0.70;0.70;;;23.60;99.90;;;;;;5078678;28;20239;-82
2022/08/25 00:11:00;;;;;;;1.00;0.67;;;23.60;99.90;;;;;;5088932;28;20180;-82
2022/08/25 00:13:26;;;;;;;0.40;0.40;;;23.60;99.90;;;;;;5085523;28;20230;-82
2022/08/25 00:15:52;;;;;;;0.33;0.30;;;23.40;99.90;;;;;;5089255;28;20202;-82
2022/08/25 00:18:18;;;;;;;0.50;0.50;;;23.30;99.90;;;;;;5086615;28;20204;-82
2022/08/25 00:20:45;;;;;;;1.67;0.50;;;23.20;99.90;;;;;;5097522;28;20187;-82
2022/08/25 00:23:11;;;;;;;0.40;0.40;;;23.20;99.90;;;;;;5090622;28;20232;-79
2022/08/25 00:25:36;;;;;;;0.60;0.60;;;23.10;99.90;;;;;;5089157;28;20479;-79
2022/08/25 00:28:02;;;;;;;0.57;0.57;;;23.00;99.90;;;;;;5082709;28;20666;-80
2022/08/25 00:30:27;;;;;;;0.40;0.40;;;23.00;99.90;;;;;;5092549;28;20271;-80
2022/08/25 00:32:53;;;;;;;0.40;0.40;;;22.90;99.90;;;;;;5086187;28;20266;-82
2022/08/25 00:35:18;;;;;;;0.57;0.57;;;22.90;99.90;;;;;;5096033;28;20212;-82
2022/08/25 00:37:44;;;;;;;0.50;0.50;;;22.80;99.90;;;;;;5087719;28;20200;-80
2022/08/25 00:40:10;;;;;;;0.33;0.33;;;22.80;99.90;;;;;;5092680;28;20209;-80
2022/08/25 00:42:37;;;;;;;0.37;0.37;;;22.80;99.90;;;;;;5091916;28;20191;-80
2022/08/25 00:45:05;;;;;;;0.30;0.30;;;22.80;99.90;;;;;;5093248;28;20266;-79
2022/08/25 00:47:31;;;;;;;0.77;0.47;;;22.70;99.90;;;;;;5102200;28;20201;-82
2022/08/25 00:50:00;;;;;;;0.70;0.70;;;22.70;99.90;;;;;;5084531;28;20213;-80
2022/08/25 00:52:36;;;;;;;0.60;0.60;;;22.70;99.90;;;;;;5093666;28;20227;-80
2022/08/25 00:55:08;;;;;;;0.40;0.40;;;22.60;99.90;;;;;;5084158;28;20180;-80
2022/08/25 00:57:44;;;;;;;1.13;0.60;;;22.60;99.90;;;;;;5090235;28;20287;-80
2022/08/25 01:00:33;;;;;;;0.40;0.40;;;22.60;99.90;;;;;;5086244;28;20534;-80
2022/08/25 01:02:59;;;;;;;0.70;0.70;;;22.60;99.90;;;;;;5081864;28;20193;-80
2022/08/25 01:05:26;;;;;;;1.23;0.37;;;22.60;99.90;;;;;;5093700;28;20248;-79
2022/08/25 01:07:53;;;;;;;0.37;0.37;;;22.60;99.90;;;;;;5089439;28;20201;-81
2022/08/25 01:10:20;;;;;;;1.20;0.93;;;22.60;99.90;;;;;;5089431;28;20506;-80
2022/08/25 01:12:46;;;;;;;0.50;0.50;;;22.60;99.90;;;;;;5090976;28;20208;-80
2022/08/25 01:15:13;;;;;;;0.77;0.77;;;22.50;99.90;;;;;;5086535;28;20176;-80
2022/08/25 01:17:45;;;;;;;0.40;0.40;;;22.50;99.90;;;;;;5096487;28;20207;-81
2022/08/25 01:20:12;;;;;;;1.30;1.30;;;22.50;99.90;;;;;;5100199;28;20199;-80
2022/08/25 01:22:38;;;;;;;1.30;0.67;;;22.40;99.90;;;;;;5085511;28;20212;-80
2022/08/25 01:25:15;;;;;;;0.83;0.83;;;22.30;99.90;;;;;;5085558;28;20293;-81
2022/08/25 01:27:41;;;;;;;0.60;0.60;;;22.40;99.90;;;;;;5084455;28;20349;-79
2022/08/25 01:30:07;;;;;;;1.00;0.90;;;22.30;99.90;;;;;;5083886;28;20679;-79
2022/08/25 01:32:33;;;;;;;1.03;0.63;;;22.30;99.90;;;;;;5080387;28;20209;-80
2022/08/25 01:34:59;;;;;;;0.67;0.63;;;22.20;99.90;;;;;;5085666;28;20666;-81
2022/08/25 01:37:25;;;;;;;0.30;0.30;;;22.30;99.90;;;;;;5078347;28;20204;-80
2022/08/25 01:39:50;;;;;;;0.30;0.30;;;22.30;99.90;;;;;;5086674;28;20188;-80
2022/08/25 01:42:27;;;;;;;2.57;0.90;;;22.30;99.90;;;;;;5084186;28;20216;-80
2022/08/25 01:44:53;;;;;;;0.50;0.50;;;22.20;99.90;;;;;;5090034;28;20234;-80
2022/08/25 01:47:19;;;;;;;0.47;0.47;;;22.20;99.90;;;;;;5082554;28;20213;-79
2022/08/25 01:49:44;;;;;;;0.37;0.37;;;22.20;99.90;;;;;;5087615;28;20561;-80
2022/08/25 01:52:14;;;;;;;0.60;0.60;;;22.10;99.90;;;;;;5081669;28;20548;-80
2022/08/25 01:54:39;;;;;;;0.37;0.37;;;22.10;99.90;;;;;;5078302;28;20216;-80
2022/08/25 01:57:05;;;;;;;1.50;0.80;;;22.20;99.90;;;;;;5088086;28;20223;-80
2022/08/25 01:59:30;;;;;;;4.63;0.70;;;22.10;99.90;;;;;;5087445;28;20722;-80
2022/08/25 02:01:56;;;;;;;0.50;0.50;;;21.90;99.90;;;;;;5086853;28;20185;-80
2022/08/25 02:04:21;;;;;;;0.80;0.80;;;21.90;99.90;;;;;;5086108;28;20201;-80
2022/08/25 02:06:47;;;;;;;0.67;0.67;;;21.90;99.90;;;;;;5083279;28;20181;-80
2022/08/25 02:09:15;;;;;;;0.40;0.40;;;21.80;99.90;;;;;;5089501;28;20180;-81
2022/08/25 02:11:45;;;;;;;0.90;0.90;;;21.80;99.90;;;;;;5087548;28;20192;-80
2022/08/25 02:14:11;;;;;;;0.50;0.50;;;21.80;99.90;;;;;;5090150;28;20203;-80
2022/08/25 02:16:39;;;;;;;0.73;0.67;;;21.80;99.90;;;;;;5080306;28;20200;-80
2022/08/25 02:19:07;;;;;;;0.90;0.63;;;21.80;99.90;;;;;;5082155;28;20211;-80
2022/08/25 02:21:34;;;;;;;0.63;0.60;;;21.70;99.90;;;;;;5096879;28;20183;-80
2022/08/25 02:24:00;;;;;;;0.50;0.50;;;21.70;99.90;;;;;;5088866;28;20189;-80
2022/08/25 02:26:26;;;;;;;0.70;0.60;;;21.70;99.90;;;;;;5091028;28;20278;-80
2022/08/25 02:28:52;;;;;;;0.63;0.63;;;21.70;99.90;;;;;;5084584;28;20587;-80
2022/08/25 02:31:22;;;;;;;0.77;0.63;;;21.70;99.90;;;;;;5084885;28;20339;-80
2022/08/25 02:33:49;;;;;;;0.97;0.87;;;21.60;99.90;;;;;;5092463;28;20223;-80
2022/08/25 02:36:15;;;;;;;1.13;0.60;;;21.70;99.90;;;;;;5104262;28;20221;-80
2022/08/25 02:38:41;;;;;;;0.37;0.37;;;21.60;99.90;;;;;;5096662;28;20204;-80
2022/08/25 02:41:16;;;;;;;1.23;0.90;;;21.70;99.90;;;;;;5103080;28;20274;-80
2022/08/25 02:43:43;;;;;;;0.70;0.70;;;21.70;99.90;;;;;;5089099;28;20211;-80
2022/08/25 02:46:10;;;;;;;0.57;0.50;;;21.70;99.90;;;;;;5091356;28;20251;-80
2022/08/25 02:48:36;;;;;;;0.80;0.77;;;21.70;99.90;;;;;;5088510;28;20256;-80
2022/08/25 02:51:04;;;;;;;1.33;0.60;;;21.60;99.90;;;;;;5089725;28;20233;-80
2022/08/25 02:53:30;;;;;;;0.67;0.67;;;21.50;99.90;;;;;;5098345;28;20691;-80
2022/08/25 02:55:55;;;;;;;0.77;0.43;;;21.60;99.90;;;;;;5091661;28;20188;-79
2022/08/25 02:58:21;;;;;;;1.37;0.87;;;21.60;99.90;;;;;;5100031;28;20199;-81
2022/08/25 03:00:47;;;;;;;0.90;0.60;;;21.60;99.90;;;;;;5090007;28;20184;-81
2022/08/25 03:03:14;;;;;;;0.63;0.63;;;21.70;99.90;;;;;;5092334;28;20255;-80
2022/08/25 03:05:39;;;;;;;0.40;0.40;;;21.70;99.90;;;;;;5088859;28;20181;-80
2022/08/25 03:08:05;;;;;;;1.67;1.13;;;21.80;99.90;;;;;;5089595;28;20255;-79
2022/08/25 03:10:31;;;;;;;0.80;0.80;;;21.80;99.90;;;;;;5095406;28;20188;-80
2022/08/25 03:12:57;;;;;;;1.20;0.87;;;21.80;99.90;;;;;;5089247;28;20247;-80
2022/08/25 03:15:24;;;;;;;0.53;0.53;;;21.70;99.90;;;;;;5091146;28;20609;-80
2022/08/25 03:17:50;;;;;;;0.40;0.40;;;21.70;99.90;;;;;;5092154;28;20230;-80
2022/08/25 03:20:16;;;;;;;0.83;0.77;;;21.70;99.90;;;;;;5087516;28;20180;-80
2022/08/25 03:22:42;;;;;;;0.73;0.73;;;21.70;99.90;;;;;;5097086;28;20185;-80
2022/08/25 03:27:52;;;;;;;0.30;0.30;;;21.60;99.90;;;;;;5106782;28;20621;-80
2022/08/25 03:30:18;;;;;;;0.73;0.70;;;21.60;99.90;;;;;;5087145;28;20193;-79
2022/08/25 03:32:44;;;;;;;0.87;0.67;;;21.60;99.90;;;;;;5095488;28;20221;-80
2022/08/25 03:35:11;;;;;;;1.30;0.70;;;21.70;99.90;;;;;;5085914;28;20237;-79
2022/08/25 03:37:37;;;;;;;0.47;0.47;;;21.70;99.90;;;;;;5085014;28;20201;-80
2022/08/25 03:40:10;;;;;;;0.53;0.53;;;21.70;99.90;;;;;;5086113;28;20189;-80
2022/08/25 03:42:40;;;;;;;0.40;0.40;;;21.70;99.90;;;;;;5089235;28;20612;-80
2022/08/25 03:45:06;;;;;;;0.53;0.50;;;21.70;99.90;;;;;;5083172;28;20286;-80
2022/08/25 03:47:33;;;;;;;0.30;0.30;;;21.70;99.90;;;;;;5085621;28;20212;-80
2022/08/25 03:49:58;;;;;;;0.40;0.40;;;21.70;99.90;;;;;;5086118;28;20291;-80
2022/08/25 03:52:24;;;;;;;0.40;0.40;;;21.70;99.90;;;;;;5092649;28;20279;-79
2022/08/25 03:54:50;;;;;;;0.77;0.77;;;21.70;99.90;;;;;;5082966;28;20172;-80
2022/08/25 03:57:16;;;;;;;0.83;0.83;;;21.70;99.90;;;;;;5095446;28;20599;-80
2022/08/25 03:59:41;;;;;;;0.50;0.50;;;21.60;99.90;;;;;;5092928;28;20582;-80
2022/08/25 04:02:07;;;;;;;1.97;0.60;;;21.50;99.90;;;;;;5093600;28;22140;-80
2022/08/25 04:04:33;;;;;;;0.83;0.83;;;21.50;99.90;;;;;;5081067;28;20719;-80
2022/08/25 04:06:59;;;;;;;0.50;0.47;;;21.40;99.90;;;;;;5082259;28;20226;-79
2022/08/25 04:09:25;;;;;;;0.47;0.47;;;21.40;99.90;;;;;;5085607;28;20184;-80
2022/08/25 04:11:51;;;;;;;0.50;0.50;;;21.30;99.90;;;;;;5090712;28;20237;-80
2022/08/25 04:14:17;;;;;;;2.27;0.70;;;21.20;99.90;;;;;;5101646;28;20215;-80
2022/08/25 04:16:43;;;;;;;2.83;0.97;;;21.30;99.90;;;;;;5091321;28;20652;-80
2022/08/25 04:19:09;;;;;;;2.03;0.60;;;21.30;99.90;;;;;;5093060;28;20215;-79
2022/08/25 04:21:37;;;;;;;0.53;0.53;;;21.30;99.90;;;;;;5081256;28;20184;-80
2022/08/25 04:24:04;;;;;;;2.40;1.30;;;21.30;99.90;;;;;;5079008;28;20661;-80
2022/08/25 04:26:34;;;;;;;0.50;0.50;;;21.30;99.90;;;;;;5075693;28;20271;-80
2022/08/25 04:29:02;;;;;;;0.80;0.73;;;21.30;99.90;;;;;;5091782;28;20215;-80
2022/08/25 04:31:29;;;;;;;1.10;1.00;;;21.30;99.90;;;;;;5083219;28;20700;-80
2022/08/25 04:33:54;;;;;;;1.10;0.87;;;21.20;99.90;;;;;;5076292;28;20220;-80
2022/08/25 04:36:20;;;;;;;0.40;0.40;;;21.30;99.90;;;;;;5078236;28;20188;-80
2022/08/25 04:38:46;;;;;;;1.53;0.43;;;21.20;99.90;;;;;;5079385;28;20246;-80
2022/08/25 04:41:15;;;;;;;0.70;0.70;;;21.20;99.90;;;;;;5081405;28;20214;-80
2022/08/25 04:43:43;;;;;;;2.03;1.93;;;21.20;99.90;;;;;;5088455;28;20184;-80
2022/08/25 04:46:15;;;;;;;0.73;0.40;;;21.20;99.90;;;;;;5085944;28;20185;-80
2022/08/25 04:48:40;;;;;;;0.50;0.50;;;21.20;99.90;;;;;;5078321;28;20212;-79
2022/08/25 04:51:07;;;;;;;0.77;0.50;;;21.30;99.90;;;;;;5079156;28;20917;-80
2022/08/25 04:53:33;;;;;;;1.10;0.77;;;21.40;99.90;;;;;;5079437;28;20241;-80
2022/08/25 04:55:59;;;;;;;0.50;0.50;;;21.50;99.90;;;;;;5078794;28;20177;-81
2022/08/25 04:58:26;;;;;;;0.40;0.40;;;21.60;99.90;;;;;;5086560;28;20205;-80
2022/08/25 05:00:51;;;;;;;0.53;0.40;;;21.60;99.90;;;;;;5078304;28;20690;-80
2022/08/25 05:03:17;;;;;;;0.40;0.37;;;21.60;99.90;;;;;;5084174;28;20187;-80
2022/08/25 05:05:42;;;;;;;0.50;0.50;;;21.70;99.90;;;;;;5088448;28;20227;-80
2022/08/25 05:08:09;;;;;;;0.63;0.40;;;21.70;99.90;;;;;;5087445;28;20212;-81
2022/08/25 05:10:39;;;;;;;0.90;0.60;;;21.70;99.90;;;;;;5083961;28;20185;-80
2022/08/25 05:13:04;;;;;;;1.03;0.87;;;21.70;99.90;;;;;;5080446;28;20200;-80
2022/08/25 05:18:18;;;;;;;0.70;0.67;;;21.70;99.90;;;;;;5083852;28;20235;-81
2022/08/25 05:20:43;;;;;;;0.53;0.53;;;21.90;99.90;;;;;;5082966;28;20185;-82
2022/08/25 05:23:09;;;;;;;0.33;0.33;;;21.80;99.90;;;;;;5088207;28;20187;-80
2022/08/25 05:25:35;;;;;;;0.93;0.93;;;21.90;99.90;;;;;;5082043;28;20193;-81
2022/08/25 05:28:01;;;;;;;1.37;1.10;;;21.90;99.90;;;;;;5083122;28;20247;-81
2022/08/25 05:30:27;;;;;;;0.53;0.53;;;21.90;99.90;;;;;;5090598;28;20672;-81
2022/08/25 05:32:52;;;;;;;0.50;0.50;;;22.20;99.90;;;;;;5086621;28;20251;-81
2022/08/25 05:35:19;;;;;;;1.07;0.90;;;22.40;99.90;;;;;;5083714;28;20240;-81
2022/08/25 05:37:45;;;;;;;1.63;1.40;;;22.50;99.90;;;;;;5084664;28;20196;-82
2022/08/25 05:40:11;;;;;;;1.90;1.37;;;22.30;99.90;;;;;;5095017;28;20209;-81
2022/08/25 05:42:37;;;;;;;2.23;1.30;;;22.30;99.90;;;;;;5083518;28;20267;-81
2022/08/25 05:45:06;;;;;;;0.77;0.77;;;22.30;99.90;;;;;;5095969;28;20185;-79
2022/08/25 05:47:32;;;;;;;0.53;0.53;;;22.40;99.90;;;;;;5097354;28;20570;-79
2022/08/25 05:49:58;;;;;;;0.90;0.90;;;22.60;99.90;;;;;;5078949;28;20588;-79
2022/08/25 05:52:26;;;;;;;1.10;0.87;;;22.70;99.90;;;;;;5080088;28;20257;-79
2022/08/25 05:54:52;;;;;;;1.23;0.97;;;22.70;99.90;;;;;;5082671;28;20181;-80
2022/08/25 05:57:18;;;;;;;2.20;0.83;;;22.80;99.90;;;;;;5084155;27;20718;-79
2022/08/25 05:59:43;;;;;;;0.77;0.77;;;23.00;99.90;;;;;;5087740;28;20219;-79
2022/08/25 06:04:53;;;;;;;0.90;0.83;;;23.00;99.90;;;;;;5088597;28;20180;-80
2022/08/25 06:07:19;;;;;;;3.13;1.50;;;23.00;99.90;;;;;;5095069;28;20287;-80
2022/08/25 06:09:47;;;;;;;1.33;1.30;;;23.00;99.90;;;;;;5084040;28;20236;-80
2022/08/25 06:12:13;;;;;;;1.30;1.20;;;23.10;99.90;;;;;;5085673;28;20189;-80
2022/08/25 06:14:39;;;;;;;1.33;1.00;;;23.10;99.90;;;;;;5093693;28;20663;-80
2022/08/25 06:17:04;;;;;;;1.00;1.00;;;23.30;99.90;;;;;;5090322;28;20201;-81
2022/08/25 06:19:30;;;;;;;1.23;1.03;;;23.50;99.90;;;;;;5089962;28;20184;-80
2022/08/25 06:21:56;;;;;;;2.43;1.77;;;23.70;99.90;;;;;;5088336;28;20185;-79
2022/08/25 06:24:24;;;;;;;1.13;1.07;;;23.50;99.90;;;;;;5089891;28;20199;-80
2022/08/25 06:26:50;;;;;;;0.77;0.77;;;23.40;99.90;;;;;;5077992;28;20184;-80
2022/08/25 06:29:16;;;;;;;0.93;0.83;;;23.70;99.90;;;;;;5084215;28;20188;-80
2022/08/25 06:31:42;;;;;;;0.80;0.80;;;23.70;99.90;;;;;;5109932;28;20783;-80
2022/08/25 06:34:09;;;;;;;1.57;1.47;;;23.80;99.90;;;;;;5100038;28;20581;-79
2022/08/25 06:36:34;;;;;;;1.60;1.50;;;23.70;99.90;;;;;;5101967;28;20263;-79
2022/08/25 06:39:00;;;;;;;1.10;0.90;;;23.50;99.90;;;;;;5100798;28;20793;-80
2022/08/25 06:41:26;;;;;;;2.37;1.83;;;23.60;99.90;;;;;;5114224;28;20559;-80
2022/08/25 06:43:52;;;;;;;0.90;0.90;;;24.00;99.90;;;;;;5093770;28;20222;-80
2022/08/25 06:46:21;;;;;;;1.97;1.63;;;24.10;99.90;;;;;;5102942;28;20203;-80
2022/08/25 06:48:48;;;;;;;1.17;0.70;;;24.10;99.90;;;;;;5084234;28;20751;-80
2022/08/25 06:51:16;;;;;;;1.70;1.60;;;24.10;99.90;;;;;;5101895;28;20236;-81
2022/08/25 06:53:43;;;;;;;1.13;1.03;;;24.30;99.90;;;;;;5105812;28;20204;-79
2022/08/25 06:56:10;;;;;;;4.30;1.83;;;24.40;99.90;;;;;;5092076;28;20329;-80
2022/08/25 06:58:36;;;;;;;4.23;1.13;;;24.20;99.90;;;;;;5084371;28;20209;-80
2022/08/25 07:01:13;;;;;;;1.57;0.93;;;24.10;99.90;;;;;;5085367;28;20188;-80
2022/08/25 07:03:40;;;;;;;2.23;1.13;;;24.40;99.90;;;;;;5086366;28;20937;-79
2022/08/25 07:06:06;;;;;;;1.50;1.40;;;24.60;99.90;;;;;;5081725;28;20690;-80
2022/08/25 07:08:32;;;;;;;1.50;1.10;;;24.60;99.90;;;;;;5087047;28;20592;-79
2022/08/25 07:11:02;;;;;;;4.83;2.63;;;24.60;99.90;;;;;;5085920;28;20185;-80
2022/08/25 07:13:30;;;;;;;1.30;1.20;;;24.40;99.90;;;;;;5086524;28;20212;-79
2022/08/25 07:15:56;;;;;;;1.67;0.97;;;24.50;99.90;;;;;;5083415;28;20177;-79
2022/08/25 07:18:21;;;;;;;1.73;1.60;;;25.00;99.90;;;;;;5079522;28;20212;-79
2022/08/25 07:20:47;;;;;;;0.87;0.87;;;25.10;99.90;;;;;;5084856;28;20193;-79
2022/08/25 07:23:13;;;;;;;0.83;0.80;;;25.10;99.90;;;;;;5091457;28;20192;-80
2022/08/25 07:25:38;;;;;;;1.73;1.00;;;25.10;99.90;;;;;;5086025;28;20213;-81
2022/08/25 07:28:04;;;;;;;2.10;1.03;;;25.60;99.90;;;;;;5091099;28;20201;-81
2022/08/25 07:30:30;;;;;;;1.40;1.30;;;25.80;99.90;;;;;;5084367;28;20185;-80
2022/08/25 07:32:56;;;;;;;1.73;1.63;;;25.80;99.90;;;;;;5088947;28;20212;-80
2022/08/25 07:35:24;;;;;;;0.93;0.93;;;25.60;99.90;;;;;;5090993;28;20198;-80
2022/08/25 07:37:55;;;;;;;2.43;1.50;;;26.10;99.90;;;;;;5083716;28;20563;-80
2022/08/25 07:40:24;;;;;;;1.37;1.27;;;25.60;99.90;;;;;;5091153;28;20729;-81
2022/08/25 07:42:54;;;;;;;1.37;1.23;;;25.70;99.90;;;;;;5078735;28;20188;-81
2022/08/25 07:45:28;;;;;;;1.47;1.30;;;25.50;99.90;;;;;;5082845;28;20185;-82
2022/08/25 07:47:54;;;;;;;1.57;1.30;;;25.20;99.90;;;;;;5091552;28;20264;-82
2022/08/25 07:50:19;;;;;;;1.63;1.40;;;25.30;99.90;;;;;;5087883;28;20196;-80
2022/08/25 07:52:46;;;;;;;1.17;1.10;;;25.40;99.90;;;;;;5087161;28;20208;-81
2022/08/25 07:55:12;;;;;;;1.80;1.20;;;26.00;99.90;;;;;;5085943;28;20168;-80
2022/08/25 07:57:41;;;;;;;1.23;0.97;;;25.30;99.90;;;;;;5083036;28;20232;-81
2022/08/25 08:00:09;;;;;;;1.37;0.83;;;25.50;99.90;;;;;;5090654;28;20179;-80
2022/08/25 08:02:37;;;;;;;0.80;0.80;;;26.00;99.90;;;;;;5090155;28;20195;-82
2022/08/25 08:05:03;;;;;;;1.43;1.30;;;26.30;99.90;;;;;;5079875;28;20245;-82
2022/08/25 08:07:30;;;;;;;0.97;0.93;;;26.20;99.90;;;;;;5088122;28;20640;-81
2022/08/25 08:09:56;;;;;;;1.43;1.30;;;26.00;99.90;;;;;;5100685;28;20251;-81
2022/08/25 08:12:23;;;;;;;3.27;2.63;;;25.70;99.90;;;;;;5093438;28;20184;-81
2022/08/25 08:14:49;;;;;;;1.63;1.10;;;25.80;99.90;;;;;;5086854;28;20257;-81
2022/08/25 08:17:15;;;;;;;0.60;0.60;;;26.30;99.90;;;;;;5084222;28;20595;-81
2022/08/25 08:19:41;;;;;;;0.73;0.67;;;26.70;99.90;;;;;;5079134;28;20187;-80
2022/08/25 08:22:06;;;;;;;0.57;0.57;;;26.60;99.90;;;;;;5087804;28;20184;-81
2022/08/25 08:24:38;;;;;;;0.70;0.70;;;27.00;99.90;;;;;;5087135;28;20263;-81
2022/08/25 08:27:06;;;;;;;0.93;0.93;;;26.80;99.90;;;;;;5093184;28;20184;-81
2022/08/25 08:29:32;;;;;;;1.53;1.20;;;27.20;99.90;;;;;;5086529;28;20254;-81
2022/08/25 08:31:58;;;;;;;1.67;1.47;;;26.60;99.90;;;;;;5087414;28;20211;-81
2022/08/25 08:34:24;;;;;;;1.63;1.13;;;26.90;99.90;;;;;;5082066;28;20294;-81
2022/08/25 08:36:49;;;;;;;0.77;0.77;;;27.40;99.90;;;;;;5085445;28;20177;-80
2022/08/25 08:39:15;;;;;;;2.30;1.43;;;27.70;99.90;;;;;;5093261;28;20580;-80
2022/08/25 08:42:16;;;;;;;1.37;1.03;;;27.50;99.90;;;;;;5087121;28;20187;-81
2022/08/25 08:44:44;;;;;;;0.63;0.63;;;27.00;99.90;;;;;;5053725;28;20273;-80
2022/08/25 08:47:19;;;;;;;1.80;0.80;;;27.40;99.90;;;;;;5081296;28;20200;-81
2022/08/25 08:50:09;;;;;;;1.63;1.40;;;27.60;99.90;;;;;;5084857;28;20188;-81
2022/08/25 08:52:53;;;;;;;0.95;0.95;;;27.70;99.90;;;;;;5090960;28;20208;-80
2022/08/25 08:55:37;;;;;;;1.40;1.30;;;28.00;99.90;;;;;;5086164;28;20322;-80
2022/08/25 08:58:08;;;;;;;1.03;1.03;;;27.90;99.90;;;;;;5091309;28;20250;-81
2022/08/25 09:00:39;;;;;;;1.43;0.83;;;27.50;99.90;;;;;;5092496;28;20575;-80
2022/08/25 09:03:06;;;;;;;1.17;1.03;;;27.70;99.90;;;;;;5094174;28;20832;-81
2022/08/25 09:05:44;;;;;;;1.20;1.07;;;28.00;99.90;;;;;;5086992;28;20317;-81
2022/08/25 09:08:12;;;;;;;1.00;1.00;;;27.90;99.90;;;;;;5098795;28;20203;-80
2022/08/25 09:10:49;;;;;;;0.80;0.80;;;27.70;99.90;;;;;;5098388;28;20215;-81
2022/08/25 09:13:32;;;;;;;3.17;1.17;;;28.30;99.90;;;;;;5098755;28;20195;-80
2022/08/25 09:19:39;;;;;;;1.58;1.48;;;28.10;99.90;;;;;;5084263;28;20183;-81
2022/08/25 09:22:33;;;;;;;1.55;1.45;;;28.20;99.90;;;;;;5091951;28;20181;-81
2022/08/25 09:25:22;;;;;;;2.00;0.93;;;28.20;99.90;;;;;;5093567;28;20263;-81
2022/08/25 09:28:02;;;;;;;1.75;1.65;;;28.60;99.90;;;;;;5098182;28;20211;-81
2022/08/25 09:30:40;;;;;;;1.27;1.17;;;28.50;99.90;;;;;;5088380;28;20680;-81
2022/08/25 09:33:06;;;;;;;1.38;1.35;;;28.90;99.90;;;;;;5102672;27;20238;-81
2022/08/25 09:35:35;;;;;;;1.65;1.13;;;28.40;99.90;;;;;;5091497;28;20180;-81
2022/08/25 09:38:08;;;;;;;1.48;1.27;;;28.00;99.90;;;;;;5083403;28;20274;-81
2022/08/25 09:40:38;;;;;;;0.98;0.88;;;28.30;99.90;;;;;;5091518;28;20207;-81
2022/08/25 09:43:18;;;;;;;1.85;1.13;;;28.10;99.90;;;;;;5100917;28;20213;-81
2022/08/25 09:45:57;;;;;;;1.17;1.13;;;28.40;99.90;;;;;;5097350;28;20593;-81
2022/08/25 09:48:36;;;;;;;1.08;1.00;;;28.40;99.90;;;;;;5091178;28;20207;-81
2022/08/25 09:51:16;;;;;;;5.72;0.70;;;28.70;99.90;;;;;;5088200;28;20217;-81
2022/08/25 09:53:52;;;;;;;1.25;1.25;;;29.20;99.90;;;;;;5085880;28;20618;-81
2022/08/25 09:56:20;;;;;;;0.70;0.70;;;29.30;99.90;;;;;;5098176;28;20240;-81
2022/08/25 09:58:46;;;;;;;2.03;1.20;;;28.40;99.90;;;;;;5095692;28;20678;-81
2022/08/25 10:01:19;;;;;;;0.80;0.80;;;28.20;99.90;;;;;;5091965;28;20269;-81
2022/08/25 10:03:59;;;;;;;1.38;1.27;;;28.60;99.90;;;;;;5092731;28;20199;-81
2022/08/25 10:06:28;;;;;;;2.17;1.08;;;29.20;99.90;;;;;;5086934;28;20187;-81
2022/08/25 10:09:01;;;;;;;1.95;1.42;;;29.00;99.90;;;;;;5089290;28;20220;-80
2022/08/25 10:11:34;;;;;;;1.73;1.48;;;29.40;99.90;;;;;;5093414;28;20195;-81
2022/08/25 10:14:13;;;;;;;1.15;1.05;;;29.50;99.90;;;;;;5096557;28;20212;-81
2022/08/25 10:16:39;;;;;;;1.92;1.55;;;29.50;99.90;;;;;;5094626;28;20185;-82
2022/08/25 10:19:11;;;;;;;0.98;0.95;;;29.90;99.90;;;;;;5084458;28;21015;-81
2022/08/25 10:21:40;;;;;;;1.98;1.40;;;29.50;99.90;;;;;;5094771;28;20187;-82
2022/08/25 10:24:11;;;;;;;3.45;1.20;;;30.10;99.90;;;;;;5091467;28;20204;-81
2022/08/25 10:26:54;;;;;;;2.53;1.17;;;29.70;99.90;;;;;;5086836;28;20600;-82
2022/08/25 10:29:48;;;;;;;1.98;1.88;;;29.20;99.90;;;;;;5087150;28;20183;-81
2022/08/25 10:32:31;;;;;;;0.63;0.63;;;29.60;99.90;;;;;;5088802;28;20185;-81
2022/08/25 10:35:08;;;;;;;1.70;1.50;;;30.10;99.90;;;;;;5105602;28;20181;-81
2022/08/25 10:38:21;;;;;;;1.05;1.00;;;30.30;99.90;;;;;;5080189;28;20254;-81
2022/08/25 10:40:59;;;;;;;1.08;1.02;;;30.40;99.90;;;;;;5102479;28;20191;-81
2022/08/25 10:43:28;;;;;;;1.58;1.30;;;30.70;99.90;;;;;;5084621;28;20270;-82
2022/08/25 10:46:11;;;;;;;0.82;0.70;;;30.30;99.90;;;;;;5097374;28;20246;-81
2022/08/25 10:48:45;;;;;;;1.25;1.08;;;29.20;99.90;;;;;;5085039;28;20334;-82
2022/08/25 10:51:30;;;;;;;1.08;0.98;;;29.20;99.90;;;;;;5080303;28;20179;-81
2022/08/25 10:54:09;;;;;;;1.17;1.08;;;29.90;99.90;;;;;;5094590;28;20201;-81
2022/08/25 10:56:40;;;;;;;0.95;0.88;;;30.30;99.90;;;;;;5093592;28;20191;-81
2022/08/25 10:59:23;;;;;;;0.70;0.70;;;30.60;99.90;;;;;;5094242;28;20209;-81
2022/08/25 11:02:22;;;;;;;1.08;0.80;;;30.50;99.90;;;;;;5078910;28;20195;-82
2022/08/25 11:04:54;;;;;;;1.33;1.23;;;30.50;99.90;;;;;;5085345;28;20236;-82
2022/08/25 11:07:27;;;;;;;1.02;1.02;;;29.30;99.90;;;;;;5087525;28;20204;-82
2022/08/25 11:09:58;;;;;;;1.35;1.25;;;28.80;99.90;;;;;;5083501;28;20276;-81
2022/08/25 11:12:31;;;;;;;1.73;1.63;;;28.20;99.90;;;;;;5087436;28;20181;-81
2022/08/25 11:15:02;;;;;;;2.08;1.02;;;28.10;99.90;;;;;;5090907;28;20173;-81
2022/08/25 11:17:40;;;;;;;1.25;0.95;;;28.60;99.90;;;;;;5090866;28;20256;-82
2022/08/25 11:20:16;;;;;;;2.00;0.98;;;29.40;99.90;;;;;;5101666;28;20176;-81
2022/08/25 11:22:46;;;;;;;1.33;0.88;;;29.50;99.90;;;;;;5092331;28;20222;-81
2022/08/25 11:25:17;;;;;;;3.80;2.60;;;29.50;99.90;;;;;;5085836;28;20184;-81
2022/08/25 11:28:02;;;;;;;0.90;0.90;;;29.10;99.90;;;;;;5090370;28;20888;-80
2022/08/25 11:30:28;;;;;;;1.27;1.17;;;29.80;99.90;;;;;;5088446;28;20228;-82
2022/08/25 11:32:54;;;;;;;0.88;0.60;;;30.50;99.90;;;;;;5086441;28;21242;-81
2022/08/25 11:35:54;;;;;;;1.05;1.05;;;30.50;99.90;;;;;;5099212;28;20199;-81
2022/08/25 11:39:15;;;;;;;2.17;1.30;;;30.40;99.90;;;;;;5090900;28;20198;-80
2022/08/25 11:41:41;;;;;;;1.25;1.13;;;29.80;99.90;;;;;;4994325;28;20243;-82
2022/08/25 11:44:37;;;;;;;0.95;0.88;;;30.10;99.90;;;;;;5085304;28;20208;-85
2022/08/25 11:47:34;;;;;;;1.85;1.15;;;30.50;99.90;;;;;;5090373;28;20284;-81
2022/08/25 11:50:05;;;;;;;2.70;1.27;;;31.10;99.90;;;;;;5099245;28;20222;-81
2022/08/25 11:52:30;;;;;;;2.60;1.27;;;31.60;99.90;;;;;;5089859;28;20654;-81
2022/08/25 11:55:19;;;;;;;1.92;1.15;;;31.60;99.90;;;;;;5087081;28;20264;-81
2022/08/25 11:57:47;;;;;;;1.20;1.10;;;31.80;99.90;;;;;;5082328;28;20204;-81
2022/08/25 12:00:36;;;;;;;1.52;1.20;;;31.40;99.90;;;;;;5092564;28;20179;-81
2022/08/25 12:03:32;;;;;;;1.40;1.30;;;32.30;99.90;;;;;;5085185;28;20722;-81
2022/08/25 12:06:20;;;;;;;1.10;0.82;;;32.40;99.90;;;;;;5097459;28;20188;-81
2022/08/25 12:09:03;;;;;;;1.17;1.10;;;32.40;99.90;;;;;;5079353;28;20211;-81
2022/08/25 12:11:41;;;;;;;1.02;0.90;;;32.40;99.90;;;;;;5087726;28;20172;-81
2022/08/25 12:14:36;;;;;;;0.80;0.70;;;32.50;99.90;;;;;;5102636;28;20242;-81
2022/08/25 12:17:17;;;;;;;1.45;1.35;;;32.80;99.90;;;;;;5093672;28;20271;-81
2022/08/25 12:19:42;;;;;;;0.75;0.75;;;33.00;99.90;;;;;;5085844;28;20200;-81
2022/08/25 12:22:07;;;;;;;1.45;1.27;;;33.00;99.90;;;;;;5090061;28;20653;-81
2022/08/25 12:24:42;;;;;;;1.20;1.10;;;32.80;99.90;;;;;;5087357;28;20202;-81
2022/08/25 12:27:27;;;;;;;1.00;1.00;;;32.60;99.90;;;;;;5085784;28;20647;-81
2022/08/25 12:30:14;;;;;;;1.13;1.02;;;31.40;99.90;;;;;;5094153;28;20672;-82
2022/08/25 12:32:59;;;;;;;3.88;1.00;;;31.60;99.90;;;;;;5075456;28;20212;-82
2022/08/25 12:35:29;;;;;;;2.88;1.55;;;31.70;99.90;;;;;;5082519;28;20172;-81
2022/08/25 12:37:59;;;;;;;0.88;0.88;;;32.30;99.90;;;;;;5080547;28;20200;-81
2022/08/25 12:40:30;;;;;;;1.58;0.95;;;32.50;99.90;;;;;;5091716;28;20195;-81
2022/08/25 12:43:06;;;;;;;1.67;1.58;;;32.20;99.90;;;;;;5089694;28;20205;-81
2022/08/25 12:45:39;;;;;;;0.93;0.82;;;32.40;99.90;;;;;;5084916;28;20188;-82
2022/08/25 12:48:26;;;;;;;1.90;1.63;;;32.50;99.90;;;;;;5099974;28;20208;-81
2022/08/25 12:51:04;;;;;;;2.40;1.17;;;31.90;99.90;;;;;;5077237;28;20597;-81
2022/08/25 12:53:40;;;;;;;0.85;0.85;;;32.30;99.90;;;;;;5087403;28;20200;-82
2022/08/25 12:56:17;;;;;;;1.98;1.88;;;32.20;99.90;;;;;;5077782;28;20183;-81
2022/08/25 12:59:02;;;;;;;1.75;1.45;;;31.40;99.90;;;;;;5089502;28;20269;-81
2022/08/25 13:01:53;;;;;;;1.63;1.48;;;31.40;99.90;;;;;;5078190;28;20685;-81
2022/08/25 13:04:27;;;;;;;1.38;1.10;;;31.40;99.90;;;;;;5093410;28;20272;-81
2022/08/25 13:07:15;;;;;;;1.27;1.17;;;31.50;99.90;;;;;;5085712;28;20184;-81
2022/08/25 13:10:12;;;;;;;1.60;0.82;;;31.70;99.90;;;;;;5091153;28;20283;-82
2022/08/25 13:12:54;;;;;;;1.52;1.42;;;31.60;99.90;;;;;;5090547;28;20208;-81
2022/08/25 13:15:43;;;;;;;1.13;1.02;;;31.60;99.90;;;;;;5088229;28;20176;-81
2022/08/25 13:18:28;;;;;;;1.05;1.05;;;32.40;99.90;;;;;;5094578;28;20618;-82